Time;durP1;ratioP1;P1;durP2;ratioP2;P2;SDS_P1;SDS_P2;PMS_P1;PMS_P2;Temp;Humidity;BMP_temperature;BMP_pressure;BME280_temperature;BME280_humidity;BME280_pressure;Samples;Min_cycle;Max_cycle;Signal;HPM_P1;HPM_P2
2021/06/04 00:00:32;;;;;;;0.20;0.20;;;16.90;68.60;;;;;;5096239;28;20036;-79
2021/06/04 00:03:20;;;;;;;0.20;0.20;;;16.80;68.90;;;;;;5115489;28;20026;-79
2021/06/04 00:05:49;;;;;;;0.20;0.20;;;16.80;69.70;;;;;;5096351;28;20040;-79
2021/06/04 00:08:35;;;;;;;0.20;0.20;;;16.80;69.50;;;;;;5096284;28;20052;-78
2021/06/04 00:11:09;;;;;;;0.20;0.20;;;16.80;69.70;;;;;;5096621;28;20059;-78
2021/06/04 00:13:41;;;;;;;0.20;0.20;;;16.80;69.60;;;;;;5095981;28;20099;-78
2021/06/04 00:16:09;;;;;;;0.20;0.20;;;16.80;69.80;;;;;;5096226;28;20070;-78
2021/06/04 00:18:37;;;;;;;0.10;0.10;;;16.80;69.90;;;;;;5096263;28;20108;-78
2021/06/04 00:21:05;;;;;;;0.20;0.20;;;16.80;69.90;;;;;;5096073;28;20028;-78
2021/06/04 00:23:31;;;;;;;0.20;0.20;;;16.80;70.20;;;;;;5111913;28;20167;-78
2021/06/04 00:25:56;;;;;;;0.20;0.20;;;16.70;70.40;;;;;;5095955;28;20020;-78
2021/06/04 00:28:22;;;;;;;0.20;0.20;;;16.80;70.50;;;;;;5110012;28;20116;-78
2021/06/04 00:30:48;;;;;;;0.20;0.20;;;16.70;70.80;;;;;;5111175;28;20028;-79
2021/06/04 00:33:14;;;;;;;0.20;0.20;;;16.60;71.10;;;;;;5096084;28;20107;-78
2021/06/04 00:35:40;;;;;;;0.20;0.20;;;16.60;71.10;;;;;;5109865;28;20076;-78
2021/06/04 00:38:07;;;;;;;0.20;0.20;;;16.60;71.10;;;;;;5114719;28;20059;-78
2021/06/04 00:40:42;;;;;;;0.20;0.20;;;16.60;71.10;;;;;;5116157;28;20019;-77
2021/06/04 00:43:09;;;;;;;0.20;0.20;;;16.60;71.00;;;;;;5097234;28;20024;-77
2021/06/04 00:45:42;;;;;;;0.20;0.20;;;16.60;71.10;;;;;;5095696;28;20449;-78
2021/06/04 00:48:19;;;;;;;0.20;0.20;;;16.70;71.40;;;;;;5095885;28;20490;-78
2021/06/04 00:50:55;;;;;;;0.20;0.20;;;16.70;71.30;;;;;;5095520;28;20449;-79
2021/06/04 00:53:24;;;;;;;0.20;0.20;;;16.70;71.60;;;;;;5095512;28;20100;-79
2021/06/04 00:55:50;;;;;;;0.20;0.20;;;16.70;71.50;;;;;;5095797;28;20237;-79
2021/06/04 00:58:21;;;;;;;0.20;0.20;;;16.60;72.00;;;;;;5123272;27;20031;-79
2021/06/04 01:00:50;;;;;;;0.20;0.20;;;16.60;71.90;;;;;;5115749;28;20020;-78
2021/06/04 01:03:19;;;;;;;0.20;0.20;;;16.60;72.00;;;;;;5114378;28;20027;-79
2021/06/04 01:05:44;;;;;;;0.13;0.13;;;16.60;72.10;;;;;;5111288;28;20026;-79
2021/06/04 01:08:29;;;;;;;0.22;0.20;;;16.50;72.40;;;;;;5095312;28;20557;-77
2021/06/04 01:11:17;;;;;;;0.20;0.20;;;16.50;72.50;;;;;;5095490;28;20031;-78
2021/06/04 01:14:28;;;;;;;0.20;0.20;;;16.40;72.50;;;;;;5095315;28;20035;-78
2021/06/04 01:17:21;;;;;;;0.20;0.20;;;16.40;72.60;;;;;;5093897;28;20028;-78
2021/06/04 01:19:53;;;;;;;0.20;0.20;;;16.40;72.40;;;;;;5093985;28;20160;-78
2021/06/04 01:22:46;;;;;;;0.22;0.20;;;16.30;72.70;;;;;;5093840;28;20147;-78
2021/06/04 01:25:27;;;;;;;0.20;0.20;;;16.30;72.60;;;;;;5089711;28;20453;-78
2021/06/04 01:28:16;;;;;;;0.20;0.20;;;16.30;72.50;;;;;;5110312;28;20478;-78
2021/06/04 01:31:06;;;;;;;0.20;0.20;;;16.30;72.50;;;;;;5099302;28;20100;-78
2021/06/04 01:34:06;;;;;;;0.25;0.25;;;16.30;72.50;;;;;;5087963;28;20040;-78
2021/06/04 01:36:43;;;;;;;0.20;0.20;;;16.30;72.70;;;;;;5099257;28;20028;-78
2021/06/04 01:39:33;;;;;;;0.20;0.20;;;16.30;72.20;;;;;;5099357;28;20031;-78
2021/06/04 01:42:01;;;;;;;0.20;0.20;;;16.30;72.50;;;;;;5099006;28;20088;-78
2021/06/04 01:44:59;;;;;;;0.20;0.20;;;16.30;72.50;;;;;;5099081;28;20024;-78
2021/06/04 01:47:44;;;;;;;0.20;0.20;;;16.30;72.80;;;;;;5099343;28;20039;-79
2021/06/04 01:50:27;;;;;;;0.20;0.20;;;16.20;72.80;;;;;;5098936;28;20383;-79
2021/06/04 01:52:56;;;;;;;0.20;0.20;;;16.20;73.00;;;;;;5099054;28;20016;-78
2021/06/04 01:55:31;;;;;;;0.20;0.20;;;16.20;73.20;;;;;;5099194;28;20055;-78
2021/06/04 01:58:12;;;;;;;0.28;0.28;;;16.20;73.50;;;;;;5098895;28;20454;-78
2021/06/04 02:00:50;;;;;;;0.20;0.20;;;16.20;73.60;;;;;;5098763;28;20031;-79
2021/06/04 02:03:19;;;;;;;0.20;0.20;;;16.20;73.30;;;;;;5098858;28;20028;-79
2021/06/04 02:05:46;;;;;;;0.20;0.20;;;16.10;73.70;;;;;;5098668;28;20028;-79
2021/06/04 02:08:19;;;;;;;0.20;0.20;;;16.10;74.00;;;;;;5098488;28;20052;-79
2021/06/04 02:10:50;;;;;;;0.20;0.20;;;16.10;73.90;;;;;;5099009;28;20119;-79
2021/06/04 02:13:17;;;;;;;0.28;0.28;;;16.10;73.90;;;;;;5098616;28;20103;-79
2021/06/04 02:15:52;;;;;;;0.20;0.20;;;16.10;73.70;;;;;;5114088;28;20039;-79
2021/06/04 02:18:47;;;;;;;0.20;0.20;;;16.10;73.60;;;;;;5098788;28;20024;-79
2021/06/04 02:21:19;;;;;;;0.20;0.20;;;16.10;73.90;;;;;;5113936;28;20541;-79
2021/06/04 02:23:51;;;;;;;0.20;0.20;;;16.00;73.60;;;;;;5098345;28;20016;-78
2021/06/04 02:26:25;;;;;;;0.20;0.20;;;16.10;73.60;;;;;;5098533;28;20028;-78
2021/06/04 02:29:14;;;;;;;0.20;0.20;;;16.00;73.50;;;;;;5116403;28;20055;-78
2021/06/04 02:32:27;;;;;;;0.20;0.20;;;16.00;73.70;;;;;;5101406;28;20165;-79
2021/06/04 02:35:02;;;;;;;0.20;0.20;;;15.90;73.80;;;;;;5034531;28;20171;-79
2021/06/04 02:37:33;;;;;;;0.20;0.20;;;15.80;73.80;;;;;;5035479;28;20443;-79
2021/06/04 02:40:08;;;;;;;0.20;0.20;;;15.80;73.60;;;;;;5079132;28;20042;-78
2021/06/04 02:42:39;;;;;;;0.20;0.20;;;15.80;74.10;;;;;;5096576;28;20558;-77
2021/06/04 02:45:19;;;;;;;0.20;0.20;;;15.80;73.90;;;;;;5100526;28;20012;-78
2021/06/04 02:48:09;;;;;;;0.20;0.20;;;15.70;73.90;;;;;;5097016;28;20066;-78
2021/06/04 02:50:39;;;;;;;0.20;0.20;;;15.60;74.20;;;;;;5097461;28;20128;-78
2021/06/04 02:53:31;;;;;;;0.20;0.20;;;15.60;74.50;;;;;;5111166;28;20031;-78
2021/06/04 02:56:06;;;;;;;0.20;0.20;;;15.50;74.40;;;;;;5114899;28;20034;-78
2021/06/04 02:58:32;;;;;;;0.30;0.30;;;15.50;74.30;;;;;;5124484;27;20032;-78
2021/06/04 03:00:58;;;;;;;0.30;0.30;;;15.40;74.40;;;;;;5112365;28;20028;-78
2021/06/04 03:03:24;;;;;;;0.20;0.20;;;15.50;74.20;;;;;;5095837;28;20509;-78
2021/06/04 03:05:49;;;;;;;0.22;0.22;;;15.50;74.10;;;;;;5111402;27;20015;-78
2021/06/04 03:08:16;;;;;;;0.20;0.20;;;15.50;74.00;;;;;;5124597;27;20111;-78
2021/06/04 03:10:51;;;;;;;0.20;0.20;;;15.50;73.90;;;;;;5106951;28;20032;-78
2021/06/04 03:13:22;;;;;;;0.20;0.20;;;15.50;74.00;;;;;;5120560;27;20035;-78
2021/06/04 03:15:52;;;;;;;0.20;0.20;;;15.60;73.80;;;;;;5117606;28;20032;-78
2021/06/04 03:18:23;;;;;;;0.20;0.20;;;15.60;73.70;;;;;;5099954;28;20444;-78
2021/06/04 03:20:51;;;;;;;0.20;0.20;;;15.60;73.60;;;;;;5095393;28;20059;-78
2021/06/04 03:23:20;;;;;;;0.20;0.20;;;15.50;73.70;;;;;;5095722;28;20038;-78
2021/06/04 03:25:49;;;;;;;0.30;0.25;;;15.50;73.60;;;;;;5109082;28;20027;-78
2021/06/04 03:28:22;;;;;;;0.20;0.20;;;15.50;73.80;;;;;;5116020;28;20027;-78
2021/06/04 03:30:48;;;;;;;0.30;0.30;;;15.50;73.60;;;;;;5117494;28;20023;-78
2021/06/04 03:33:26;;;;;;;0.30;0.30;;;15.40;73.70;;;;;;5115244;28;20016;-78
2021/06/04 03:35:53;;;;;;;0.20;0.20;;;15.40;73.70;;;;;;5096792;28;20485;-77
2021/06/04 03:38:19;;;;;;;0.20;0.20;;;15.50;73.60;;;;;;5112599;28;20066;-78
2021/06/04 03:40:46;;;;;;;0.32;0.30;;;15.50;73.50;;;;;;5096817;28;20440;-78
2021/06/04 03:43:14;;;;;;;0.40;0.30;;;15.50;73.60;;;;;;5096642;28;20457;-78
2021/06/04 03:45:43;;;;;;;0.22;0.22;;;15.50;73.60;;;;;;5096606;28;20398;-78
2021/06/04 03:48:13;;;;;;;0.25;0.20;;;15.50;73.10;;;;;;5095664;28;20130;-78
2021/06/04 03:50:44;;;;;;;0.28;0.20;;;15.50;73.10;;;;;;5096479;28;20027;-78
2021/06/04 03:53:10;;;;;;;0.20;0.20;;;15.50;73.10;;;;;;5096597;28;20036;-78
2021/06/04 03:55:39;;;;;;;0.20;0.20;;;15.50;73.10;;;;;;5096483;28;20055;-78
2021/06/04 03:58:05;;;;;;;0.30;0.30;;;15.50;73.10;;;;;;5096237;28;20028;-78
2021/06/04 04:00:53;;;;;;;0.20;0.20;;;15.40;73.10;;;;;;5112902;28;20072;-78
2021/06/04 04:03:21;;;;;;;0.20;0.20;;;15.40;73.10;;;;;;5096759;28;20058;-78
2021/06/04 04:05:48;;;;;;;0.30;0.20;;;15.30;73.20;;;;;;5096311;28;20028;-78
2021/06/04 04:08:16;;;;;;;0.30;0.20;;;15.30;73.10;;;;;;5096203;28;20522;-78
2021/06/04 04:10:42;;;;;;;0.20;0.20;;;15.30;73.20;;;;;;5096577;28;20444;-78
2021/06/04 04:13:16;;;;;;;0.20;0.20;;;15.30;73.50;;;;;;5096151;28;20023;-78
2021/06/04 04:15:44;;;;;;;0.30;0.30;;;15.30;73.40;;;;;;5096303;28;20430;-79
2021/06/04 04:18:10;;;;;;;0.20;0.20;;;15.30;73.20;;;;;;5096392;28;20494;-78
2021/06/04 04:20:42;;;;;;;0.20;0.20;;;15.30;73.30;;;;;;5095780;28;20065;-75
2021/06/04 04:23:09;;;;;;;0.20;0.20;;;15.30;73.10;;;;;;5095891;28;20505;-78
2021/06/04 04:25:40;;;;;;;0.20;0.20;;;15.30;72.90;;;;;;5096056;28;20545;-77
2021/06/04 04:28:09;;;;;;;0.20;0.20;;;15.40;73.10;;;;;;5107725;28;20027;-76
2021/06/04 04:30:35;;;;;;;0.30;0.30;;;15.30;72.90;;;;;;5116305;28;20098;-76
2021/06/04 04:33:02;;;;;;;0.20;0.20;;;15.30;73.00;;;;;;5114721;28;20055;-77
2021/06/04 04:35:32;;;;;;;0.20;0.20;;;15.30;72.90;;;;;;5100708;28;20058;-77
2021/06/04 04:37:58;;;;;;;0.20;0.20;;;15.30;72.90;;;;;;5095612;28;20035;-76
2021/06/04 04:40:26;;;;;;;0.20;0.20;;;15.40;72.70;;;;;;5095820;28;20067;-77
2021/06/04 04:42:52;;;;;;;0.30;0.30;;;15.40;72.90;;;;;;5094305;28;20092;-77
2021/06/04 04:45:20;;;;;;;0.20;0.20;;;15.30;73.00;;;;;;5095623;28;20040;-76
2021/06/04 04:47:46;;;;;;;0.30;0.30;;;15.30;73.00;;;;;;5095772;28;20028;-77
2021/06/04 04:50:13;;;;;;;0.25;0.25;;;15.30;72.80;;;;;;5096001;28;20576;-77
2021/06/04 04:52:39;;;;;;;0.30;0.30;;;15.40;72.60;;;;;;5095422;28;20028;-80
2021/06/04 04:55:07;;;;;;;0.20;0.20;;;15.40;72.60;;;;;;5095499;28;20043;-78
2021/06/04 04:57:33;;;;;;;0.20;0.20;;;15.40;72.90;;;;;;5110446;28;20023;-81
2021/06/04 04:59:59;;;;;;;0.30;0.30;;;15.30;72.90;;;;;;5107600;28;20051;-78
2021/06/04 05:02:25;;;;;;;0.20;0.20;;;15.30;73.00;;;;;;5116012;28;20024;-77
2021/06/04 05:04:51;;;;;;;0.20;0.20;;;15.30;72.90;;;;;;5113643;28;20051;-78
2021/06/04 05:07:17;;;;;;;0.30;0.30;;;15.30;72.90;;;;;;5095528;28;20051;-79
2021/06/04 05:09:43;;;;;;;0.30;0.30;;;15.30;72.90;;;;;;5110645;28;20084;-81
2021/06/04 05:12:09;;;;;;;0.30;0.30;;;15.30;73.00;;;;;;5095352;28;20031;-79
2021/06/04 05:14:36;;;;;;;0.20;0.20;;;15.30;73.00;;;;;;5095292;28;20028;-78
2021/06/04 05:17:02;;;;;;;0.30;0.30;;;15.30;73.10;;;;;;5095176;28;20073;-80
2021/06/04 05:19:29;;;;;;;0.30;0.30;;;15.30;72.80;;;;;;5094099;28;20028;-80
2021/06/04 05:21:55;;;;;;;0.20;0.20;;;15.30;72.60;;;;;;5095161;28;20026;-79
2021/06/04 05:24:21;;;;;;;0.20;0.20;;;15.30;72.50;;;;;;5095006;28;20526;-85
2021/06/04 05:26:47;;;;;;;0.40;0.30;;;15.30;72.50;;;;;;5110645;28;20036;-85
2021/06/04 05:29:13;;;;;;;0.20;0.20;;;15.30;72.50;;;;;;5108734;28;20035;-85
2021/06/04 05:31:39;;;;;;;0.20;0.20;;;15.30;72.40;;;;;;5095140;28;20074;-81
2021/06/04 05:34:06;;;;;;;0.30;0.30;;;15.30;72.20;;;;;;5095064;28;20371;-78
2021/06/04 05:36:34;;;;;;;0.20;0.20;;;15.30;72.50;;;;;;5097736;28;20035;-77
2021/06/04 05:39:04;;;;;;;0.30;0.30;;;15.30;72.70;;;;;;5117211;28;20031;-77
2021/06/04 05:41:30;;;;;;;0.30;0.30;;;15.30;72.80;;;;;;5108671;28;20057;-77
2021/06/04 05:43:56;;;;;;;0.20;0.20;;;15.30;72.60;;;;;;5109777;28;20020;-77
2021/06/04 05:46:22;;;;;;;0.20;0.20;;;15.30;72.50;;;;;;5114403;28;20028;-77
2021/06/04 05:48:49;;;;;;;0.20;0.20;;;15.30;72.80;;;;;;5111117;28;20405;-77
2021/06/04 05:51:26;;;;;;;0.30;0.30;;;15.30;72.60;;;;;;5114390;28;20019;-78
2021/06/04 05:53:52;;;;;;;0.20;0.20;;;15.30;72.50;;;;;;5117901;28;20036;-77
2021/06/04 05:56:20;;;;;;;0.20;0.20;;;15.30;72.70;;;;;;5121396;28;20126;-76
2021/06/04 05:58:45;;;;;;;0.20;0.20;;;15.30;72.70;;;;;;5105694;28;20066;-76
2021/06/04 06:01:20;;;;;;;0.28;0.28;;;15.30;73.00;;;;;;5115204;28;20024;-76
2021/06/04 06:03:46;;;;;;;0.20;0.20;;;15.20;73.00;;;;;;5113611;28;20027;-77
2021/06/04 06:06:13;;;;;;;0.20;0.20;;;15.20;72.90;;;;;;5109687;28;20173;-76
2021/06/04 06:08:40;;;;;;;0.30;0.30;;;15.30;72.80;;;;;;5094764;28;20044;-76
2021/06/04 06:33:55;;;;;;;0.40;0.30;;;13.80;79.30;;;;;;5089969;28;20371;-76
2021/06/04 06:36:27;;;;;;;0.40;0.30;;;14.00;79.40;;;;;;5071599;28;20016;-78
2021/06/04 06:38:55;;;;;;;0.30;0.30;;;14.40;78.30;;;;;;5069947;28;20094;-78
2021/06/04 06:41:22;;;;;;;0.30;0.30;;;14.90;76.60;;;;;;5067200;28;20029;-77
2021/06/04 06:43:51;;;;;;;0.30;0.28;;;15.30;75.30;;;;;;5070141;28;20032;-77
2021/06/04 06:46:18;;;;;;;0.20;0.20;;;15.60;74.20;;;;;;5067362;28;20028;-77
2021/06/04 06:48:44;;;;;;;0.30;0.30;;;15.80;73.20;;;;;;5070809;28;20028;-77
2021/06/04 06:51:11;;;;;;;0.30;0.30;;;15.90;72.80;;;;;;5071103;28;20024;-77
2021/06/04 06:53:41;;;;;;;0.20;0.20;;;16.00;72.20;;;;;;5070912;28;20553;-79
2021/06/04 06:56:08;;;;;;;0.30;0.22;;;16.10;72.00;;;;;;5067041;28;20398;-79
2021/06/04 06:58:35;;;;;;;0.20;0.20;;;16.10;71.90;;;;;;5066689;28;20771;-80
2021/06/04 07:01:03;;;;;;;0.20;0.20;;;16.20;71.90;;;;;;5062006;28;20513;-79
2021/06/04 07:03:31;;;;;;;0.20;0.20;;;16.20;71.60;;;;;;5063232;28;20036;-79
2021/06/04 07:06:00;;;;;;;0.20;0.20;;;16.20;71.70;;;;;;5068742;28;20025;-79
2021/06/04 07:08:26;;;;;;;0.20;0.20;;;16.20;71.20;;;;;;5066011;28;20741;-79
2021/06/04 07:10:52;;;;;;;0.30;0.30;;;16.30;70.90;;;;;;5067713;28;20053;-79
2021/06/04 07:13:25;;;;;;;0.20;0.20;;;16.30;71.00;;;;;;5069719;28;20074;-80
2021/06/04 07:15:56;;;;;;;0.20;0.20;;;16.30;70.80;;;;;;5067623;28;20029;-79
2021/06/04 07:18:21;;;;;;;0.20;0.20;;;16.30;71.10;;;;;;5061738;28;20065;-80
2021/06/04 07:20:48;;;;;;;0.20;0.20;;;16.30;71.10;;;;;;5069129;28;20060;-79
2021/06/04 07:23:14;;;;;;;0.20;0.20;;;16.20;71.70;;;;;;5065754;28;20031;-80
2021/06/04 07:25:45;;;;;;;0.20;0.20;;;16.20;71.30;;;;;;5069585;28;20713;-80
2021/06/04 07:28:13;;;;;;;0.20;0.20;;;16.10;71.10;;;;;;5079189;28;20021;-79
2021/06/04 07:30:47;;;;;;;0.22;0.20;;;16.20;71.30;;;;;;5048724;28;20569;-80
2021/06/04 07:33:21;;;;;;;0.20;0.20;;;16.20;71.40;;;;;;5048708;28;20079;-80
2021/06/04 07:35:49;;;;;;;0.20;0.20;;;16.30;71.30;;;;;;5048833;28;20399;-80
2021/06/04 07:38:15;;;;;;;0.20;0.20;;;16.30;70.70;;;;;;5052935;28;20035;-80
2021/06/04 07:40:42;;;;;;;0.20;0.20;;;16.40;70.80;;;;;;5049087;28;20104;-79
2021/06/04 07:43:11;;;;;;;0.20;0.20;;;16.50;70.90;;;;;;5063762;28;20036;-80
2021/06/04 07:45:38;;;;;;;0.20;0.20;;;16.60;70.70;;;;;;5037001;28;20384;-81
2021/06/04 07:48:06;;;;;;;0.20;0.20;;;16.50;70.80;;;;;;5046219;28;20075;-80
2021/06/04 07:50:32;;;;;;;0.20;0.20;;;16.60;70.40;;;;;;5043397;28;20075;-79
2021/06/04 07:52:58;;;;;;;0.20;0.20;;;16.70;70.10;;;;;;5051628;28;20111;-80
2021/06/04 07:55:25;;;;;;;0.20;0.20;;;16.70;70.00;;;;;;5036024;28;20965;-80
2021/06/04 07:57:51;;;;;;;0.20;0.20;;;16.80;69.80;;;;;;5050829;28;20029;-79
2021/06/04 08:00:24;;;;;;;0.25;0.20;;;16.80;69.90;;;;;;5044457;28;20104;-80
2021/06/04 08:02:50;;;;;;;0.20;0.20;;;16.80;70.00;;;;;;5053200;28;20706;-80
2021/06/04 08:05:16;;;;;;;0.20;0.20;;;16.80;69.90;;;;;;5035209;28;20022;-81
2021/06/04 08:07:42;;;;;;;0.20;0.20;;;16.90;69.90;;;;;;5053178;28;20059;-80
2021/06/04 08:10:10;;;;;;;0.20;0.20;;;17.10;69.80;;;;;;5037012;28;20036;-80
2021/06/04 08:12:37;;;;;;;0.20;0.20;;;17.20;69.70;;;;;;5046778;28;20036;-80
2021/06/04 08:15:17;;;;;;;0.30;0.28;;;17.50;68.50;;;;;;5056848;28;20483;-80
2021/06/04 08:17:45;;;;;;;0.30;0.20;;;17.80;67.80;;;;;;5048223;28;20029;-81
2021/06/04 08:20:12;;;;;;;0.15;0.10;;;18.10;67.20;;;;;;5036678;28;20431;-81
2021/06/04 08:22:42;;;;;;;0.10;0.10;;;18.20;67.30;;;;;;5037229;28;20025;-80
2021/06/04 08:25:09;;;;;;;0.25;0.20;;;17.90;66.70;;;;;;5055724;28;20033;-81
2021/06/04 08:27:35;;;;;;;0.20;0.20;;;17.90;67.00;;;;;;5060680;28;20017;-80
2021/06/04 08:30:01;;;;;;;0.20;0.20;;;17.90;67.20;;;;;;5076307;28;20439;-81
2021/06/04 08:32:27;;;;;;;0.22;0.20;;;18.00;67.00;;;;;;5044879;28;20049;-81
2021/06/04 08:34:53;;;;;;;0.40;0.20;;;18.10;66.60;;;;;;5054147;28;20036;-81
2021/06/04 08:37:18;;;;;;;0.20;0.20;;;18.30;66.50;;;;;;5054867;28;20029;-81
2021/06/04 08:39:45;;;;;;;0.20;0.10;;;18.30;66.10;;;;;;5035170;28;20052;-80
2021/06/04 08:42:52;;;;;;;0.20;0.20;;;18.20;66.40;;;;;;5042482;28;20027;-80
2021/06/04 08:45:42;;;;;;;0.20;0.20;;;18.20;66.60;;;;;;4977877;28;20535;-82
2021/06/04 08:48:32;;;;;;;0.20;0.20;;;18.20;66.80;;;;;;4993321;28;20469;-82
2021/06/04 08:51:19;;;;;;;0.20;0.20;;;18.10;65.90;;;;;;5034167;28;20117;-82
2021/06/04 08:53:57;;;;;;;0.25;0.20;;;18.00;66.60;;;;;;5045481;28;20033;-82
2021/06/04 08:56:54;;;;;;;0.20;0.20;;;18.00;66.80;;;;;;5054789;28;20373;-80
2021/06/04 08:59:20;;;;;;;0.20;0.20;;;17.90;66.40;;;;;;5049218;28;20037;-80
2021/06/04 09:01:57;;;;;;;0.28;0.20;;;18.00;66.50;;;;;;5044233;28;20033;-80
2021/06/04 09:04:52;;;;;;;0.25;0.20;;;18.00;66.90;;;;;;5035442;28;20076;-80
2021/06/04 09:07:35;;;;;;;0.20;0.20;;;18.00;67.00;;;;;;5031673;28;20666;-80
2021/06/04 09:10:28;;;;;;;0.30;0.20;;;18.00;66.90;;;;;;5048764;28;20037;-80
2021/06/04 09:13:13;;;;;;;0.20;0.20;;;18.20;66.70;;;;;;5035541;28;20049;-81
2021/06/04 09:15:42;;;;;;;0.25;0.20;;;18.30;66.80;;;;;;5035441;28;20029;-81
2021/06/04 09:18:39;;;;;;;0.25;0.20;;;18.40;66.70;;;;;;5048733;28;20410;-81
2021/06/04 09:21:11;;;;;;;0.20;0.20;;;18.40;65.80;;;;;;5034062;28;20029;-80
2021/06/04 09:23:39;;;;;;;0.20;0.20;;;18.60;65.50;;;;;;5034980;28;20110;-80
2021/06/04 09:26:07;;;;;;;0.30;0.20;;;18.70;66.00;;;;;;5034496;28;20080;-81
2021/06/04 09:28:37;;;;;;;0.20;0.20;;;18.70;65.90;;;;;;5060525;28;20512;-81
2021/06/04 09:31:17;;;;;;;0.38;0.25;;;18.80;65.30;;;;;;5050231;28;20392;-80
2021/06/04 09:33:48;;;;;;;0.20;0.20;;;18.80;65.30;;;;;;5054498;28;20144;-79
2021/06/04 09:36:25;;;;;;;0.17;0.17;;;18.80;65.20;;;;;;5055833;28;20032;-80
2021/06/04 09:39:34;;;;;;;0.10;0.10;;;18.80;65.50;;;;;;5047834;28;20574;-80
2021/06/04 09:42:16;;;;;;;0.20;0.10;;;18.90;65.30;;;;;;5033389;28;20046;-81
2021/06/04 09:45:11;;;;;;;0.20;0.20;;;18.80;65.10;;;;;;5041647;28;20511;-80
2021/06/04 09:47:46;;;;;;;0.20;0.20;;;18.80;64.60;;;;;;5044517;28;20805;-80
2021/06/04 09:50:20;;;;;;;0.22;0.20;;;19.00;65.40;;;;;;5040907;28;20024;-81
2021/06/04 09:52:59;;;;;;;0.20;0.20;;;19.20;64.50;;;;;;5054151;28;20040;-80
2021/06/04 09:55:29;;;;;;;0.10;0.10;;;19.30;63.50;;;;;;5029660;28;20044;-80
2021/06/04 09:58:00;;;;;;;0.30;0.20;;;19.50;63.30;;;;;;5047433;28;20051;-80
2021/06/04 10:00:51;;;;;;;0.20;0.20;;;19.60;62.40;;;;;;5033158;28;20119;-80
2021/06/04 10:03:34;;;;;;;0.20;0.20;;;19.80;62.20;;;;;;5037322;28;20028;-80
2021/06/04 10:06:06;;;;;;;0.20;0.20;;;20.00;61.90;;;;;;5047786;28;20040;-80
2021/06/04 10:08:42;;;;;;;0.10;0.10;;;20.00;60.90;;;;;;5051727;28;20048;-80
2021/06/04 10:11:21;;;;;;;0.30;0.20;;;20.10;61.00;;;;;;5054081;28;20032;-81
2021/06/04 10:14:05;;;;;;;0.30;0.20;;;20.30;59.80;;;;;;5033566;28;20036;-79
2021/06/04 10:19:39;;;;;;;0.20;0.20;;;20.90;56.80;;;;;;5033234;28;20033;-79
2021/06/04 10:22:05;;;;;;;0.20;0.20;;;21.30;56.60;;;;;;5045567;28;20077;-77
2021/06/04 10:24:34;;;;;;;0.20;0.20;;;21.70;55.00;;;;;;5034849;28;20492;-79
2021/06/04 10:27:03;;;;;;;0.20;0.10;;;21.90;54.10;;;;;;5040594;28;20032;-83
2021/06/04 10:29:30;;;;;;;0.30;0.20;;;22.10;53.70;;;;;;5044588;28;20031;-79
2021/06/04 10:32:12;;;;;;;0.10;0.10;;;22.50;53.30;;;;;;5048987;28;20032;-82
2021/06/04 10:34:44;;;;;;;0.08;0.08;;;22.80;53.00;;;;;;5046763;28;20096;-81
2021/06/04 10:37:22;;;;;;;0.10;0.10;;;22.80;52.00;;;;;;5046627;28;20030;-79
2021/06/04 10:39:54;;;;;;;0.15;0.10;;;22.80;51.90;;;;;;5046724;28;20100;-79
2021/06/04 10:42:31;;;;;;;0.10;0.10;;;22.80;51.60;;;;;;5047595;28;20038;-78
2021/06/04 10:45:28;;;;;;;0.20;0.10;;;22.80;51.60;;;;;;5049467;28;20025;-78
2021/06/04 10:48:13;;;;;;;0.20;0.20;;;22.80;50.30;;;;;;5033483;28;20038;-80
2021/06/04 10:51:14;;;;;;;0.15;0.10;;;23.20;50.20;;;;;;5050835;28;20028;-81
2021/06/04 10:54:18;;;;;;;0.10;0.10;;;23.20;49.50;;;;;;5047714;28;20032;-78
2021/06/04 10:57:08;;;;;;;0.10;0.10;;;23.60;50.90;;;;;;5033504;28;20037;-77
2021/06/04 10:59:53;;;;;;;0.10;0.10;;;23.40;50.30;;;;;;5033251;28;20045;-82
2021/06/04 11:02:36;;;;;;;0.10;0.10;;;23.30;50.50;;;;;;5032588;28;20083;-82
2021/06/04 11:05:38;;;;;;;0.10;0.10;;;23.40;50.80;;;;;;5032667;28;20037;-84
2021/06/04 11:08:07;;;;;;;0.10;0.10;;;23.30;50.60;;;;;;5048612;28;20021;-82
2021/06/04 11:11:15;;;;;;;0.10;0.10;;;23.30;49.80;;;;;;5052651;28;20084;-81
2021/06/04 11:14:19;;;;;;;0.03;0.03;;;23.40;48.90;;;;;;5044413;28;20095;-82
2021/06/04 11:17:01;;;;;;;0.10;0.10;;;23.00;50.00;;;;;;5050970;28;20036;-82
2021/06/04 11:19:46;;;;;;;0.10;0.10;;;23.00;50.70;;;;;;5054550;28;20078;-82
2021/06/04 11:22:39;;;;;;;0.13;0.10;;;23.10;48.20;;;;;;5052719;28;20025;-82
2021/06/04 11:25:24;;;;;;;0.15;0.10;;;23.20;49.30;;;;;;5052628;28;20017;-82
2021/06/04 11:28:01;;;;;;;0.10;0.10;;;23.30;47.80;;;;;;5052910;28;20040;-82
2021/06/04 11:30:31;;;;;;;0.10;0.10;;;23.40;48.70;;;;;;5047559;28;20030;-83
2021/06/04 11:32:59;;;;;;;;;;;23.50;48.40;;;;;;5036118;28;20049;-81
2021/06/04 11:35:32;;;;;;;0.10;0.10;;;23.50;48.10;;;;;;5056270;28;20003;-82
2021/06/04 11:38:06;;;;;;;0.10;0.10;;;23.50;47.60;;;;;;5054416;28;20055;-82
2021/06/04 11:40:44;;;;;;;0.20;0.10;;;23.60;48.40;;;;;;5056583;28;20428;-82
2021/06/04 11:43:13;;;;;;;0.17;0.10;;;23.70;47.60;;;;;;5051600;28;20120;-82
2021/06/04 11:45:39;;;;;;;0.17;0.10;;;23.90;48.60;;;;;;5056295;28;20087;-82
2021/06/04 11:48:26;;;;;;;0.10;0.10;;;24.10;49.30;;;;;;5057324;28;20029;-82
2021/06/04 11:51:17;;;;;;;0.10;0.10;;;23.80;46.70;;;;;;5057150;28;20021;-82
2021/06/04 11:53:47;;;;;;;0.10;0.10;;;23.60;47.50;;;;;;5052071;28;20040;-83
2021/06/04 11:56:38;;;;;;;0.10;0.10;;;23.70;47.80;;;;;;5037537;28;20033;-82
2021/06/04 11:59:10;;;;;;;0.30;0.10;;;23.80;48.20;;;;;;5041615;28;20056;-82
2021/06/04 12:02:02;;;;;;;0.10;0.10;;;23.80;48.00;;;;;;5052710;28;20108;-82
2021/06/04 12:04:27;;;;;;;0.10;0.10;;;23.80;47.80;;;;;;5056376;28;20278;-82
2021/06/04 12:07:04;;;;;;;0.10;0.10;;;23.80;47.30;;;;;;5055058;28;20079;-82
2021/06/04 12:09:33;;;;;;;0.13;0.10;;;23.70;46.90;;;;;;5056034;28;20024;-82
2021/06/04 12:12:19;;;;;;;0.10;0.10;;;23.80;47.40;;;;;;5055034;28;20029;-82
2021/06/04 12:14:57;;;;;;;0.10;0.10;;;24.10;46.70;;;;;;5056997;28;20017;-81
2021/06/04 12:17:24;;;;;;;0.10;0.10;;;24.20;45.30;;;;;;5052414;28;20057;-81
2021/06/04 12:20:15;;;;;;;0.10;0.10;;;24.00;47.10;;;;;;5036827;28;20028;-81
2021/06/04 12:22:53;;;;;;;0.20;0.10;;;24.00;47.60;;;;;;5036263;28;20029;-81
2021/06/04 12:25:37;;;;;;;0.05;0.00;;;24.00;47.80;;;;;;5036906;28;20026;-81
2021/06/04 12:28:11;;;;;;;0.10;0.10;;;23.70;45.00;;;;;;5065029;28;20083;-82
2021/06/04 12:30:57;;;;;;;0.00;0.00;;;23.60;46.20;;;;;;5071342;28;20135;-82
2021/06/04 12:33:44;;;;;;;0.00;0.00;;;23.50;45.80;;;;;;5054703;28;20052;-82
2021/06/04 12:36:29;;;;;;;0.10;0.10;;;23.50;46.40;;;;;;5055085;28;20518;-82
2021/06/04 12:39:14;;;;;;;0.10;0.10;;;23.40;45.90;;;;;;5055102;28;20060;-82
2021/06/04 12:41:40;;;;;;;0.10;0.10;;;23.50;47.40;;;;;;5038425;28;20088;-82
2021/06/04 12:44:11;;;;;;;0.10;0.10;;;23.30;48.00;;;;;;5051451;28;20114;-82
2021/06/04 12:46:38;;;;;;;0.10;0.10;;;23.30;48.70;;;;;;5055668;28;20509;-82
2021/06/04 12:49:10;;;;;;;0.10;0.10;;;23.10;48.30;;;;;;5055881;28;20068;-82
2021/06/04 12:51:42;;;;;;;0.10;0.10;;;23.10;48.80;;;;;;5046250;28;20564;-82
2021/06/04 12:54:10;;;;;;;0.00;0.00;;;23.30;49.20;;;;;;5055687;28;20021;-82
2021/06/04 12:56:44;;;;;;;0.10;0.10;;;23.50;47.80;;;;;;5053565;28;20025;-82
2021/06/04 12:59:16;;;;;;;0.10;0.10;;;23.60;46.90;;;;;;5041033;28;20029;-82
2021/06/04 13:01:54;;;;;;;0.10;0.10;;;23.70;47.30;;;;;;5054635;28;20028;-82
2021/06/04 13:04:25;;;;;;;0.20;0.10;;;23.90;48.20;;;;;;5054337;28;20020;-82
2021/06/04 13:06:53;;;;;;;0.10;0.10;;;24.00;46.20;;;;;;5056060;28;20028;-82
2021/06/04 13:09:27;;;;;;;0.10;0.10;;;24.20;46.80;;;;;;5040249;28;20026;-82
2021/06/04 13:11:53;;;;;;;0.10;0.10;;;24.10;46.20;;;;;;5051652;28;20034;-82
2021/06/04 13:14:29;;;;;;;0.10;0.10;;;24.20;45.60;;;;;;5035294;28;20122;-82
2021/06/04 13:17:07;;;;;;;0.10;0.10;;;24.20;46.00;;;;;;5035838;28;20049;-83
2021/06/04 13:19:33;;;;;;;0.10;0.10;;;24.30;46.30;;;;;;5035618;28;20037;-82
2021/06/04 13:22:02;;;;;;;0.10;0.10;;;24.30;46.80;;;;;;5035709;28;20014;-82
2021/06/04 13:24:31;;;;;;;0.10;0.10;;;24.30;45.90;;;;;;5035381;28;20381;-82
2021/06/04 13:26:58;;;;;;;0.10;0.10;;;24.50;46.30;;;;;;5039825;28;20020;-81
2021/06/04 13:29:30;;;;;;;0.10;0.10;;;24.30;45.90;;;;;;5035754;28;20515;-82
2021/06/04 13:32:04;;;;;;;0.10;0.10;;;24.30;45.60;;;;;;5048961;28;20097;-82
2021/06/04 13:34:44;;;;;;;0.10;0.10;;;24.00;45.50;;;;;;5053646;28;20029;-82
2021/06/04 13:37:24;;;;;;;0.10;0.10;;;23.70;45.60;;;;;;5044703;28;20032;-82
2021/06/04 13:39:49;;;;;;;0.10;0.10;;;23.30;45.70;;;;;;5053626;28;20474;-82
2021/06/04 13:42:27;;;;;;;0.10;0.10;;;23.10;47.10;;;;;;5050306;28;20029;-82
2021/06/04 13:44:54;;;;;;;0.10;0.10;;;22.90;47.30;;;;;;5034830;28;20072;-82
2021/06/04 13:47:40;;;;;;;0.20;0.10;;;23.00;46.70;;;;;;5034969;28;20104;-82